Time,TemperatureF,DewpointF,PressureIn,WindDirection,WindDirectionDegrees,WindSpeedMPH,WindSpeedGustMPH,Humidity,HourlyPrecipIn,Conditions,Clouds,dailyrainin,SoftwareType,DateUTC
2013-06-03 00:01:00,64.0,60.7,27.85,SE,135,0.0,0.0,89,0.00,,---,0.00,VWS V14.01,2013-06-03 04:01:00,
2013-06-03 00:02:00,63.9,60.6,27.85,SE,135,0.0,0.0,89,0.00,,---,0.00,VWS V14.01,2013-06-03 04:02:00,
2013-06-03 00:07:00,63.9,60.6,27.88,SE,135,0.0,0.0,89,0.00,,---,0.00,VWS V14.01,2013-06-03 04:07:00,
2013-06-03 00:12:00,63.9,60.6,27.88,SE,135,0.0,0.0,89,0.00,,---,0.00,VWS V14.01,2013-06-03 04:12:00,
2013-06-03 00:17:00,63.9,60.9,27.88,SE,135,0.0,0.0,90,0.00,,---,0.00,VWS V14.01,2013-06-03 04:17:00,
2013-06-03 00:22:00,63.9,60.6,27.85,SE,135,0.0,0.0,89,0.00,,---,0.00,VWS V14.01,2013-06-03 04:22:00,
2013-06-03 00:27:00,64.2,60.9,27.85,SE,135,0.0,0.0,89,0.00,,---,0.00,VWS V14.01,2013-06-03 04:27:00,
2013-06-03 00:32:00,64.4,61.1,27.85,SE,135,0.0,0.0,89,0.00,,---,0.00,VWS V14.01,2013-06-03 04:32:00,
2013-06-03 00:38:00,64.2,60.9,27.85,SE,135,0.0,0.0,89,0.00,,---,0.00,VWS V14.01,2013-06-03 04:38:00,
2013-06-03 00:43:00,64.2,60.9,27.85,SE,135,0.0,0.0,89,0.00,,---,0.00,VWS V14.01,2013-06-03 04:43:00,
2013-06-03 00:48:00,64.2,60.9,27.85,SE,135,0.0,0.0,89,0.00,,---,0.00,VWS V14.01,2013-06-03 04:48:00,
2013-06-03 00:53:00,64.0,60.7,27.85,SE,135,0.0,0.0,89,0.00,,---,0.00,VWS V14.01,2013-06-03 04:53:00,
2013-06-03 00:58:00,63.9,60.6,27.85,SE,135,0.0,0.0,89,0.00,,---,0.00,VWS V14.01,2013-06-03 04:58:00,
2013-06-03 01:03:00,63.9,60.6,27.85,SE,135,0.0,0.0,89,0.00,,---,0.00,VWS V14.01,2013-06-03 05:03:00,
2013-06-03 01:08:00,63.9,60.6,27.85,SE,135,0.0,0.0,89,0.00,,---,0.00,VWS V14.01,2013-06-03 05:08:00,
2013-06-03 01:13:00,63.7,60.4,27.85,SE,135,0.0,0.0,89,0.00,,---,0.00,VWS V14.01,2013-06-03 05:13:00,
2013-06-03 01:18:00,63.7,60.4,27.85,SE,135,0.0,0.0,89,0.00,,---,0.00,VWS V14.01,2013-06-03 05:18:00,
2013-06-03 01:23:00,63.5,60.2,27.85,SE,135,0.0,0.0,89,0.00,,---,0.00,VWS V14.01,2013-06-03 05:23:00,
2013-06-03 01:28:00,63.5,60.5,27.85,SE,135,0.0,0.0,90,0.00,,---,0.00,VWS V14.01,2013-06-03 05:28:00,
2013-06-03 01:33:00,63.5,60.5,27.85,SE,135,0.0,0.0,90,0.00,,---,0.00,VWS V14.01,2013-06-03 05:33:00,
2013-06-03 01:38:00,63.5,60.5,27.85,SE,135,0.0,0.0,90,0.00,,---,0.00,VWS V14.01,2013-06-03 05:38:00,
2013-06-03 01:43:00,63.5,60.5,27.85,SE,135,0.0,0.0,90,0.00,,---,0.00,VWS V14.01,2013-06-03 05:43:00,
2013-06-03 01:48:00,63.5,60.5,27.85,SE,135,0.0,0.0,90,0.00,,---,0.00,VWS V14.01,2013-06-03 05:48:00,
2013-06-03 01:53:00,63.5,60.5,27.85,SE,135,0.0,0.0,90,0.00,,---,0.00,VWS V14.01,2013-06-03 05:53:00,
2013-06-03 01:58:00,63.5,60.5,27.85,SE,135,0.0,0.0,90,0.00,,---,0.00,VWS V14.01,2013-06-03 05:58:00,
2013-06-03 02:03:00,63.9,60.9,27.85,SE,135,0.0,0.0,90,0.00,,---,0.00,VWS V14.01,2013-06-03 06:03:00,
2013-06-03 02:08:00,63.9,60.9,27.85,SE,135,0.0,0.0,90,0.00,,---,0.00,VWS V14.01,2013-06-03 06:08:00,
2013-06-03 02:13:00,64.0,61.0,27.85,SE,135,0.0,0.0,90,0.00,,---,0.00,VWS V14.01,2013-06-03 06:13:00,
2013-06-03 02:18:00,64.2,61.2,27.85,SE,135,0.0,0.0,90,0.00,,---,0.00,VWS V14.01,2013-06-03 06:18:00,
2013-06-03 02:23:00,64.2,61.5,27.85,SE,135,0.0,0.0,91,0.00,,---,0.00,VWS V14.01,2013-06-03 06:23:00,
2013-06-03 02:29:00,64.2,61.5,27.85,SE,135,0.0,0.0,91,0.00,,---,0.00,VWS V14.01,2013-06-03 06:29:00,
2013-06-03 02:34:00,64.2,61.5,27.85,SE,135,0.0,0.0,91,0.00,,---,0.00,VWS V14.01,2013-06-03 06:34:00,
2013-06-03 02:39:00,64.2,61.5,27.85,SE,135,0.0,0.0,91,0.00,,---,0.00,VWS V14.01,2013-06-03 06:39:00,
2013-06-03 02:44:00,64.2,61.5,27.85,SE,135,0.0,0.0,91,0.00,,---,0.00,VWS V14.01,2013-06-03 06:44:00,
2013-06-03 02:49:00,63.9,61.2,27.85,SE,135,0.0,0.0,91,0.00,,---,0.00,VWS V14.01,2013-06-03 06:49:00,
2013-06-03 02:54:00,63.7,61.0,27.88,SE,135,0.0,0.0,91,0.00,,---,0.00,VWS V14.01,2013-06-03 06:54:00,
2013-06-03 02:59:00,63.7,61.3,27.88,SE,135,0.0,0.0,92,0.00,,---,0.00,VWS V14.01,2013-06-03 06:59:00,
2013-06-03 03:04:00,63.5,61.1,27.88,SE,135,0.0,0.0,92,0.00,,---,0.00,VWS V14.01,2013-06-03 07:04:00,
2013-06-03 03:09:00,63.5,61.1,27.85,SE,135,0.0,0.0,92,0.00,,---,0.00,VWS V14.01,2013-06-03 07:09:00,
2013-06-03 03:14:00,63.5,61.4,27.85,SE,135,0.0,0.0,93,0.00,,---,0.00,VWS V14.01,2013-06-03 07:14:00,
2013-06-03 03:19:00,63.5,61.4,27.85,SE,135,0.0,0.0,93,0.00,,---,0.00,VWS V14.01,2013-06-03 07:19:00,
2013-06-03 03:24:00,63.5,61.4,27.85,SE,135,0.0,0.0,93,0.00,,---,0.00,VWS V14.01,2013-06-03 07:24:00,
2013-06-03 03:29:00,63.5,61.4,27.85,SE,135,0.0,0.0,93,0.00,,---,0.00,VWS V14.01,2013-06-03 07:29:00,
2013-06-03 03:34:00,63.5,61.4,27.85,SE,135,0.0,0.0,93,0.00,,---,0.00,VWS V14.01,2013-06-03 07:34:00,
2013-06-03 03:39:00,63.7,61.6,27.85,SE,135,0.0,0.0,93,0.00,,---,0.00,VWS V14.01,2013-06-03 07:39:00,
2013-06-03 03:45:00,63.9,62.1,27.85,SE,135,0.0,0.0,94,0.00,,---,0.00,VWS V14.01,2013-06-03 07:45:00,
2013-06-03 03:50:00,63.9,62.1,27.85,SE,135,0.0,0.0,94,0.00,,---,0.00,VWS V14.01,2013-06-03 07:50:00,
2013-06-03 03:55:00,63.9,62.1,27.85,SE,135,0.0,0.0,94,0.00,,---,0.00,VWS V14.01,2013-06-03 07:55:00,
2013-06-03 04:00:00,63.7,61.9,27.85,SE,135,0.0,0.0,94,0.00,,---,0.00,VWS V14.01,2013-06-03 08:00:00,
2013-06-03 04:05:00,63.7,61.9,27.85,SE,135,0.0,0.0,94,0.00,,---,0.00,VWS V14.01,2013-06-03 08:05:00,
2013-06-03 04:10:00,63.5,61.8,27.85,SE,135,0.0,0.0,94,0.00,,---,0.00,VWS V14.01,2013-06-03 08:10:00,
2013-06-03 04:15:00,63.5,61.8,27.85,SE,135,0.0,0.0,94,0.00,,---,0.00,VWS V14.01,2013-06-03 08:15:00,
2013-06-03 04:20:00,63.5,61.8,27.85,WNW,292,0.0,0.0,94,0.00,,---,0.00,VWS V14.01,2013-06-03 08:20:00,
2013-06-03 04:25:00,63.3,61.9,27.85,NW,315,0.0,0.0,95,0.00,,---,0.00,VWS V14.01,2013-06-03 08:25:00,
2013-06-03 04:30:00,63.3,61.9,27.85,NNW,338,0.0,0.0,95,0.00,,---,0.00,VWS V14.01,2013-06-03 08:30:00,
2013-06-03 04:35:00,63.3,61.9,27.85,WNW,292,0.0,0.0,95,0.00,,---,0.00,VWS V14.01,2013-06-03 08:35:00,
2013-06-03 04:40:00,63.3,61.9,27.85,WNW,292,0.0,0.0,95,0.00,,---,0.00,VWS V14.01,2013-06-03 08:40:00,
2013-06-03 04:45:00,63.5,62.0,27.85,WNW,292,0.0,0.0,95,0.00,,---,0.00,VWS V14.01,2013-06-03 08:45:00,
2013-06-03 04:50:00,63.5,62.0,27.85,WNW,292,0.0,0.0,95,0.00,,---,0.00,VWS V14.01,2013-06-03 08:50:00,
2013-06-03 04:56:00,63.7,62.2,27.85,West,270,0.0,0.0,95,0.00,,---,0.00,VWS V14.01,2013-06-03 08:56:00,
2013-06-03 05:01:00,63.7,62.2,27.85,NE,45,0.0,0.0,95,0.00,,---,0.00,VWS V14.01,2013-06-03 09:01:00,
2013-06-03 05:06:00,63.7,62.2,27.85,NW,315,0.0,0.0,95,0.00,,---,0.00,VWS V14.01,2013-06-03 09:06:00,
2013-06-03 05:11:00,63.7,62.2,27.85,NW,315,0.0,0.0,95,0.00,,---,0.00,VWS V14.01,2013-06-03 09:11:00,
2013-06-03 05:16:00,63.5,62.0,27.85,NW,315,0.0,0.0,95,0.00,,---,0.00,VWS V14.01,2013-06-03 09:16:00,
2013-06-03 05:21:00,63.5,62.0,27.85,NW,315,0.0,0.0,95,0.00,,---,0.00,VWS V14.01,2013-06-03 09:21:00,
2013-06-03 05:26:00,63.3,61.9,27.85,WSW,248,0.0,0.0,95,0.00,,---,0.00,VWS V14.01,2013-06-03 09:26:00,
2013-06-03 05:31:00,63.1,61.7,27.85,WSW,248,0.0,0.0,95,0.00,,---,0.00,VWS V14.01,2013-06-03 09:31:00,
2013-06-03 05:36:00,63.1,62.0,27.85,SE,135,0.0,0.0,96,0.00,,---,0.00,VWS V14.01,2013-06-03 09:36:00,
2013-06-03 05:42:00,63.0,61.8,27.85,SE,135,0.0,0.0,96,0.00,,---,0.00,VWS V14.01,2013-06-03 09:42:00,
2013-06-03 05:47:00,63.0,61.8,27.85,SW,225,0.0,0.0,96,0.00,,---,0.00,VWS V14.01,2013-06-03 09:47:00,
2013-06-03 05:52:00,63.0,61.8,27.85,WSW,248,0.0,0.0,96,0.00,,---,0.00,VWS V14.01,2013-06-03 09:52:00,
2013-06-03 05:57:00,63.0,61.8,27.85,East,90,1.6,1.6,96,0.00,,---,0.00,VWS V14.01,2013-06-03 09:57:00,
2013-06-03 06:02:00,62.8,61.6,27.85,WSW,248,0.0,0.0,96,0.00,,---,0.00,VWS V14.01,2013-06-03 10:02:00,
2013-06-03 06:07:00,62.8,61.6,27.85,NW,315,1.1,1.1,96,0.00,,---,0.00,VWS V14.01,2013-06-03 10:07:00,
2013-06-03 06:12:00,62.6,61.5,27.85,NW,315,0.0,1.1,96,0.00,,---,0.00,VWS V14.01,2013-06-03 10:12:00,
2013-06-03 06:17:00,62.6,61.5,27.85,West,270,0.0,1.3,96,0.00,,---,0.00,VWS V14.01,2013-06-03 10:17:00,
2013-06-03 06:22:00,62.6,61.5,27.85,WNW,292,0.0,0.0,96,0.00,,---,0.00,VWS V14.01,2013-06-03 10:22:00,
2013-06-03 06:27:00,62.6,61.5,27.85,NE,45,0.0,0.0,96,0.00,,---,0.00,VWS V14.01,2013-06-03 10:27:00,
2013-06-03 06:32:00,62.6,61.5,27.85,WSW,248,0.0,0.0,96,0.00,,---,0.00,VWS V14.01,2013-06-03 10:32:00,
2013-06-03 06:37:00,62.4,61.3,27.88,WSW,248,0.0,0.0,96,0.00,,---,0.00,VWS V14.01,2013-06-03 10:37:00,
2013-06-03 06:42:00,62.4,61.3,27.88,WSW,248,0.0,0.0,96,0.00,,---,0.00,VWS V14.01,2013-06-03 10:42:00,
2013-06-03 06:47:00,62.4,61.3,27.88,North,0,0.0,0.0,96,0.00,,---,0.00,VWS V14.01,2013-06-03 10:47:00,
2013-06-03 06:52:00,62.4,61.3,27.88,NW,315,0.0,0.0,96,0.00,,---,0.00,VWS V14.01,2013-06-03 10:52:00,
2013-06-03 06:57:00,62.4,61.3,27.88,NNE,22,0.0,0.0,96,0.00,,---,0.00,VWS V14.01,2013-06-03 10:57:00,
2013-06-03 07:02:00,62.2,61.1,27.88,WNW,292,0.0,0.0,96,0.00,,---,0.00,VWS V14.01,2013-06-03 11:02:00,
2013-06-03 07:07:00,62.2,61.1,27.88,WNW,292,0.0,0.0,96,0.00,,---,0.00,VWS V14.01,2013-06-03 11:07:00,
2013-06-03 07:12:00,62.2,61.4,27.88,WNW,292,0.0,0.0,97,0.00,,---,0.00,VWS V14.01,2013-06-03 11:12:00,
2013-06-03 07:17:00,62.4,61.6,27.88,WNW,292,0.0,0.0,97,0.00,,---,0.00,VWS V14.01,2013-06-03 11:17:00,
2013-06-03 07:22:00,62.6,61.5,27.88,WNW,292,0.0,0.0,96,0.00,,---,0.00,VWS V14.01,2013-06-03 11:22:00,
2013-06-03 07:28:00,62.6,61.5,27.88,WSW,248,0.0,0.0,96,0.00,,---,0.00,VWS V14.01,2013-06-03 11:28:00,
2013-06-03 07:33:00,62.6,61.5,27.88,SSW,202,0.0,0.0,96,0.00,,---,0.00,VWS V14.01,2013-06-03 11:33:00,
2013-06-03 07:38:00,62.8,61.6,27.88,SSW,202,0.0,0.0,96,0.00,,---,0.00,VWS V14.01,2013-06-03 11:38:00,
2013-06-03 07:43:00,62.8,61.6,27.88,SSW,202,0.0,0.0,96,0.00,,---,0.00,VWS V14.01,2013-06-03 11:43:00,
2013-06-03 07:48:00,62.8,61.6,27.88,SSW,202,0.0,0.0,96,0.00,,---,0.00,VWS V14.01,2013-06-03 11:48:00,
2013-06-03 07:53:00,63.0,61.8,27.88,SSW,202,0.0,0.0,96,0.00,,---,0.00,VWS V14.01,2013-06-03 11:53:00,
2013-06-03 07:58:00,63.1,62.0,27.88,SSW,202,0.0,0.0,96,0.00,,---,0.00,VWS V14.01,2013-06-03 11:58:00,
2013-06-03 08:03:00,63.5,62.3,27.88,SSW,202,0.0,0.0,96,0.00,,---,0.00,VWS V14.01,2013-06-03 12:03:00,
2013-06-03 08:08:00,63.9,62.7,27.88,SSW,202,0.0,0.0,96,0.00,,---,0.00,VWS V14.01,2013-06-03 12:08:00,
2013-06-03 08:13:00,64.0,62.9,27.88,WSW,248,0.0,0.0,96,0.00,,---,0.00,VWS V14.01,2013-06-03 12:13:00,
2013-06-03 08:18:00,64.2,63.1,27.88,WSW,248,0.0,0.0,96,0.00,,---,0.00,VWS V14.01,2013-06-03 12:18:00,
2013-06-03 08:23:00,64.6,63.1,27.88,WSW,248,0.0,0.0,95,0.00,,---,0.00,VWS V14.01,2013-06-03 12:23:00,
2013-06-03 08:28:00,64.9,63.5,27.88,WSW,248,0.0,0.0,95,0.00,,---,0.00,VWS V14.01,2013-06-03 12:28:00,
2013-06-03 08:34:00,65.1,63.7,27.88,East,90,0.0,1.3,95,0.00,,---,0.00,VWS V14.01,2013-06-03 12:34:00,
2013-06-03 08:39:00,65.5,64.0,27.90,South,180,0.0,0.0,95,0.00,,---,0.00,VWS V14.01,2013-06-03 12:39:00,
2013-06-03 08:44:00,66.0,64.2,27.90,SSW,202,0.0,0.0,94,0.00,,---,0.00,VWS V14.01,2013-06-03 12:44:00,
2013-06-03 08:49:00,66.9,65.1,27.90,SSW,202,0.0,0.0,94,0.00,,---,0.00,VWS V14.01,2013-06-03 12:49:00,
2013-06-03 08:54:00,67.1,65.0,27.90,SE,135,0.0,0.0,93,0.00,,---,0.00,VWS V14.01,2013-06-03 12:54:00,
2013-06-03 08:59:00,67.6,65.2,27.90,WSW,248,0.0,0.0,92,0.00,,---,0.00,VWS V14.01,2013-06-03 12:59:00,
2013-06-03 09:04:00,67.8,65.1,27.90,SW,225,0.0,0.0,91,0.00,,---,0.00,VWS V14.01,2013-06-03 13:04:00,
2013-06-03 09:09:00,67.5,64.4,27.90,WSW,248,0.0,0.0,90,0.00,,---,0.00,VWS V14.01,2013-06-03 13:09:00,
2013-06-03 09:14:00,67.5,64.4,27.90,East,90,0.0,0.0,90,0.00,,---,0.00,VWS V14.01,2013-06-03 13:14:00,
2013-06-03 09:19:00,67.5,64.4,27.90,North,0,0.0,0.0,90,0.00,,---,0.00,VWS V14.01,2013-06-03 13:19:00,
2013-06-03 09:24:00,67.5,64.4,27.90,NNW,338,2.0,2.0,90,0.00,,---,0.00,VWS V14.01,2013-06-03 13:24:00,
2013-06-03 09:29:00,70.2,66.1,27.90,WNW,292,0.0,0.9,87,0.00,,---,0.00,VWS V14.01,2013-06-03 13:29:00,
2013-06-03 09:34:00,70.9,66.5,27.90,WNW,292,0.0,0.0,86,0.00,,---,0.00,VWS V14.01,2013-06-03 13:34:00,
2013-06-03 09:39:00,70.7,66.0,27.90,WNW,292,0.0,0.0,85,0.00,,---,0.00,VWS V14.01,2013-06-03 13:39:00,
2013-06-03 09:45:00,70.9,65.8,27.90,WNW,292,0.0,0.0,84,0.00,,---,0.00,VWS V14.01,2013-06-03 13:45:00,
2013-06-03 09:50:00,70.5,65.1,27.90,WNW,292,0.0,0.0,83,0.00,,---,0.00,VWS V14.01,2013-06-03 13:50:00,
2013-06-03 09:55:00,70.5,65.1,27.90,NW,315,2.0,2.0,83,0.00,,---,0.00,VWS V14.01,2013-06-03 13:55:00,
2013-06-03 10:00:00,70.3,64.2,27.90,WSW,248,0.0,0.0,81,0.00,,---,0.00,VWS V14.01,2013-06-03 14:00:00,
2013-06-03 10:05:00,70.2,63.7,27.90,East,90,0.0,0.0,80,0.00,,---,0.00,VWS V14.01,2013-06-03 14:05:00,
2013-06-03 10:10:00,70.5,64.1,27.90,ENE,68,0.9,0.9,80,0.00,,---,0.00,VWS V14.01,2013-06-03 14:10:00,
2013-06-03 10:15:00,71.2,65.1,27.90,East,90,0.0,0.0,81,0.00,,---,0.00,VWS V14.01,2013-06-03 14:15:00,
2013-06-03 10:20:00,72.3,65.4,27.90,WNW,292,0.0,0.0,79,0.00,,---,0.00,VWS V14.01,2013-06-03 14:20:00,
2013-06-03 10:25:00,72.0,64.7,27.90,WNW,292,0.0,0.0,78,0.00,,---,0.00,VWS V14.01,2013-06-03 14:25:00,
2013-06-03 10:30:00,72.0,65.1,27.90,NE,45,0.0,0.0,79,0.00,,---,0.00,VWS V14.01,2013-06-03 14:30:00,
2013-06-03 10:35:00,72.5,65.3,27.90,West,270,0.9,0.9,78,0.00,,---,0.00,VWS V14.01,2013-06-03 14:35:00,
2013-06-03 10:40:00,73.0,65.8,27.90,WNW,292,0.0,0.9,78,0.00,,---,0.00,VWS V14.01,2013-06-03 14:40:00,
2013-06-03 10:46:00,72.9,64.5,27.90,ENE,68,0.0,0.0,75,0.00,,---,0.00,VWS V14.01,2013-06-03 14:46:00,
2013-06-03 10:51:00,72.9,64.9,27.93,WSW,248,0.0,0.0,76,0.00,,---,0.00,VWS V14.01,2013-06-03 14:51:00,
2013-06-03 10:56:00,73.2,64.8,27.93,WSW,248,0.0,0.0,75,0.00,,---,0.00,VWS V14.01,2013-06-03 14:56:00,
2013-06-03 11:01:00,73.0,64.7,27.93,SW,225,0.0,1.1,75,0.00,,---,0.00,VWS V14.01,2013-06-03 15:01:00,
2013-06-03 11:06:00,72.9,64.1,27.90,SW,225,0.0,0.9,74,0.00,,---,0.00,VWS V14.01,2013-06-03 15:06:00,
2013-06-03 11:11:00,73.2,63.7,27.90,East,90,1.6,2.5,72,0.00,,---,0.00,VWS V14.01,2013-06-03 15:11:00,
2013-06-03 11:16:00,75.0,64.6,27.90,WNW,292,1.1,2.0,70,0.00,,---,0.00,VWS V14.01,2013-06-03 15:16:00,
2013-06-03 11:22:00,75.9,64.6,27.90,South,180,2.0,2.0,68,0.00,,---,0.00,VWS V14.01,2013-06-03 15:22:00,
2013-06-03 11:27:00,76.5,65.1,27.90,SSW,202,0.0,0.9,68,0.00,,---,0.00,VWS V14.01,2013-06-03 15:27:00,
2013-06-03 11:32:00,75.9,64.2,27.90,West,270,0.0,0.0,67,0.00,,---,0.00,VWS V14.01,2013-06-03 15:32:00,
2013-06-03 11:37:00,77.4,65.6,27.93,SW,225,0.9,0.9,67,0.00,,---,0.00,VWS V14.01,2013-06-03 15:37:00,
2013-06-03 11:42:00,78.3,66.0,27.93,South,180,0.9,0.9,66,0.00,,---,0.00,VWS V14.01,2013-06-03 15:42:00,
2013-06-03 11:47:00,77.7,63.2,27.93,SW,225,2.0,2.0,61,0.00,,---,0.00,VWS V14.01,2013-06-03 15:47:00,
2013-06-03 11:52:00,79.3,63.3,27.93,WSW,248,1.1,1.6,58,0.00,,---,0.00,VWS V14.01,2013-06-03 15:52:00,
2013-06-03 11:57:00,79.9,61.2,27.93,West,270,0.0,5.4,53,0.00,,---,0.00,VWS V14.01,2013-06-03 15:57:00,
2013-06-03 12:02:00,80.4,61.7,27.93,SSE,158,2.0,2.5,53,0.00,,---,0.00,VWS V14.01,2013-06-03 16:02:00,
2013-06-03 12:07:00,80.1,60.9,27.90,SSW,202,0.0,1.3,52,0.00,,---,0.00,VWS V14.01,2013-06-03 16:07:00,
2013-06-03 12:12:00,80.6,60.8,27.90,WNW,292,1.3,1.3,51,0.00,,---,0.00,VWS V14.01,2013-06-03 16:12:00,
2013-06-03 12:17:00,81.0,61.2,27.90,SW,225,1.6,1.6,51,0.00,,---,0.00,VWS V14.01,2013-06-03 16:17:00,
2013-06-03 12:22:00,80.2,61.0,27.93,WNW,292,0.0,0.0,52,0.00,,---,0.00,VWS V14.01,2013-06-03 16:22:00,
2013-06-03 12:27:00,80.4,60.1,27.93,East,90,2.2,2.2,50,0.00,,---,0.00,VWS V14.01,2013-06-03 16:27:00,
2013-06-03 12:32:00,81.5,63.3,27.93,WSW,248,2.5,2.5,54,0.00,,---,0.00,VWS V14.01,2013-06-03 16:32:00,
2013-06-03 12:37:00,80.6,61.4,27.90,SSW,202,0.9,1.1,52,0.00,,---,0.00,VWS V14.01,2013-06-03 16:37:00,
2013-06-03 12:42:00,79.7,60.0,27.90,SSW,202,0.0,0.0,51,0.00,,---,0.00,VWS V14.01,2013-06-03 16:42:00,
2013-06-03 12:48:00,80.4,61.2,27.90,SSW,202,1.1,2.2,52,0.00,,---,0.00,VWS V14.01,2013-06-03 16:48:00,
2013-06-03 12:53:00,79.5,60.4,27.90,WNW,292,0.9,0.9,52,0.00,,---,0.00,VWS V14.01,2013-06-03 16:53:00,
2013-06-03 12:58:00,77.7,59.2,27.90,South,180,0.9,0.9,53,0.00,,---,0.00,VWS V14.01,2013-06-03 16:58:00,
2013-06-03 13:03:00,79.2,61.1,27.90,SSE,158,0.0,1.1,54,0.00,,---,0.00,VWS V14.01,2013-06-03 17:03:00,
2013-06-03 13:08:00,79.7,60.5,27.90,South,180,0.0,1.1,52,0.00,,---,0.00,VWS V14.01,2013-06-03 17:08:00,
2013-06-03 13:13:00,80.2,59.9,27.90,WSW,248,0.0,2.0,50,0.00,,---,0.00,VWS V14.01,2013-06-03 17:13:00,
2013-06-03 13:18:00,79.9,60.2,27.90,SSW,202,0.0,2.2,51,0.00,,---,0.00,VWS V14.01,2013-06-03 17:18:00,
2013-06-03 13:23:00,80.8,60.4,27.90,SE,135,1.6,2.5,50,0.00,,---,0.00,VWS V14.01,2013-06-03 17:23:00,
2013-06-03 13:28:00,81.7,60.7,27.90,WSW,248,0.0,0.0,49,0.00,,---,0.00,VWS V14.01,2013-06-03 17:28:00,
2013-06-03 13:33:00,82.8,61.7,27.90,WSW,248,0.9,1.6,49,0.00,,---,0.00,VWS V14.01,2013-06-03 17:33:00,
2013-06-03 13:38:00,81.5,59.9,27.90,SE,135,0.0,0.9,48,0.00,,---,0.00,VWS V14.01,2013-06-03 17:38:00,
2013-06-03 13:43:00,81.5,59.9,27.90,South,180,0.0,0.0,48,0.00,,---,0.00,VWS V14.01,2013-06-03 17:43:00,
2013-06-03 13:48:00,81.0,60.0,27.90,East,90,0.9,0.9,49,0.00,,---,0.00,VWS V14.01,2013-06-03 17:48:00,
2013-06-03 13:54:00,79.9,59.6,27.90,SSW,202,0.0,0.9,50,0.00,,---,0.00,VWS V14.01,2013-06-03 17:54:00,
2013-06-03 13:59:00,77.9,58.3,27.90,SSW,202,0.0,1.1,51,0.00,,---,0.00,VWS V14.01,2013-06-03 17:59:00,
2013-06-03 14:04:00,78.1,58.5,27.90,South,180,0.9,2.0,51,0.00,,---,0.00,VWS V14.01,2013-06-03 18:04:00,
2013-06-03 14:09:00,77.2,58.2,27.90,WSW,248,1.6,1.6,52,0.00,,---,0.00,VWS V14.01,2013-06-03 18:09:00,
2013-06-03 14:14:00,79.5,59.8,27.90,WSW,248,0.0,0.0,51,0.00,,---,0.00,VWS V14.01,2013-06-03 18:14:00,
2013-06-03 14:19:00,81.1,61.3,27.90,ESE,112,2.2,2.2,51,0.00,,---,0.00,VWS V14.01,2013-06-03 18:19:00,
2013-06-03 14:24:00,81.9,61.4,27.88,WNW,292,0.9,0.9,50,0.00,,---,0.00,VWS V14.01,2013-06-03 18:24:00,
2013-06-03 14:29:00,82.2,60.6,27.88,WNW,292,1.1,1.6,48,0.00,,---,0.00,VWS V14.01,2013-06-03 18:29:00,
2013-06-03 14:34:00,81.1,58.4,27.88,SSW,202,1.6,1.6,46,0.00,,---,0.00,VWS V14.01,2013-06-03 18:34:00,
2013-06-03 14:39:00,81.9,59.7,27.90,WSW,248,1.1,2.7,47,0.00,,---,0.00,VWS V14.01,2013-06-03 18:39:00,
2013-06-03 14:44:00,82.9,60.0,27.90,WSW,248,0.0,0.9,46,0.00,,---,0.00,VWS V14.01,2013-06-03 18:44:00,
2013-06-03 14:50:00,82.8,59.3,27.90,WSW,248,2.5,2.5,45,0.00,,---,0.00,VWS V14.01,2013-06-03 18:50:00,
2013-06-03 14:55:00,83.1,59.6,27.88,SSW,202,2.5,2.5,45,0.00,,---,0.00,VWS V14.01,2013-06-03 18:55:00,
2013-06-03 15:00:00,82.8,59.3,27.88,SSW,202,0.0,1.1,45,0.00,,---,0.00,VWS V14.01,2013-06-03 19:00:00,
2013-06-03 15:05:00,81.9,58.5,27.88,SSW,202,0.0,1.3,45,0.00,,---,0.00,VWS V14.01,2013-06-03 19:05:00,
2013-06-03 15:10:00,82.0,59.8,27.88,South,180,0.0,0.0,47,0.00,,---,0.00,VWS V14.01,2013-06-03 19:10:00,
2013-06-03 15:15:00,80.6,57.9,27.88,WSW,248,0.9,1.1,46,0.00,,---,0.00,VWS V14.01,2013-06-03 19:15:00,
2013-06-03 15:20:00,78.8,56.9,27.88,West,270,0.0,0.0,47,0.00,,---,0.00,VWS V14.01,2013-06-03 19:20:00,
2013-06-03 15:25:00,80.6,58.5,27.88,WSW,248,0.0,0.0,47,0.00,,---,0.00,VWS V14.01,2013-06-03 19:25:00,
2013-06-03 15:30:00,82.0,59.2,27.88,SW,225,1.6,1.6,46,0.00,,---,0.00,VWS V14.01,2013-06-03 19:30:00,
2013-06-03 15:35:00,82.8,58.7,27.88,SSE,158,0.0,0.0,44,0.00,,---,0.00,VWS V14.01,2013-06-03 19:35:00,
2013-06-03 15:40:00,83.1,59.6,27.88,South,180,0.0,0.9,45,0.00,,---,0.00,VWS V14.01,2013-06-03 19:40:00,
2013-06-03 15:45:00,83.8,59.0,27.88,WSW,248,1.3,1.3,43,0.00,,---,0.00,VWS V14.01,2013-06-03 19:45:00,
2013-06-03 15:50:00,82.4,57.0,27.88,SSW,202,0.9,0.9,42,0.00,,---,0.00,VWS V14.01,2013-06-03 19:50:00,
2013-06-03 15:55:00,81.7,56.4,27.88,WSW,248,0.0,0.0,42,0.00,,---,0.00,VWS V14.01,2013-06-03 19:55:00,
2013-06-03 16:00:00,84.0,58.5,27.88,SSW,202,0.0,0.0,42,0.00,,---,0.00,VWS V14.01,2013-06-03 20:00:00,
2013-06-03 16:05:00,84.0,59.1,27.88,SSW,202,0.0,0.0,43,0.00,,---,0.00,VWS V14.01,2013-06-03 20:05:00,
2013-06-03 16:10:00,85.1,59.5,27.88,SSW,202,0.0,0.0,42,0.00,,---,0.00,VWS V14.01,2013-06-03 20:10:00,
2013-06-03 16:16:00,84.4,57.5,27.88,WSW,248,0.9,2.2,40,0.00,,---,0.00,VWS V14.01,2013-06-03 20:16:00,
2013-06-03 16:21:00,85.1,59.5,27.88,SW,225,0.9,1.1,42,0.00,,---,0.00,VWS V14.01,2013-06-03 20:21:00,
2013-06-03 16:26:00,85.8,59.4,27.88,East,90,0.9,1.6,41,0.00,,---,0.00,VWS V14.01,2013-06-03 20:26:00,
2013-06-03 16:31:00,85.3,58.2,27.88,SSW,202,0.9,1.3,40,0.00,,---,0.00,VWS V14.01,2013-06-03 20:31:00,
2013-06-03 16:36:00,84.0,57.8,27.88,SSW,202,0.0,2.7,41,0.00,,---,0.00,VWS V14.01,2013-06-03 20:36:00,
2013-06-03 16:41:00,81.9,56.5,27.88,SSE,158,0.0,0.0,42,0.00,,---,0.00,VWS V14.01,2013-06-03 20:41:00,
2013-06-03 16:46:00,82.8,57.3,27.88,WSW,248,0.0,0.0,42,0.00,,---,0.00,VWS V14.01,2013-06-03 20:46:00,
2013-06-03 16:51:00,82.2,57.5,27.88,SSW,202,0.0,0.0,43,0.00,,---,0.00,VWS V14.01,2013-06-03 20:51:00,
2013-06-03 16:57:00,82.0,57.4,27.88,WNW,292,0.9,0.9,43,0.00,,---,0.00,VWS V14.01,2013-06-03 20:57:00,
2013-06-03 17:02:00,83.3,57.8,27.88,WSW,248,2.2,2.2,42,0.00,,---,0.00,VWS V14.01,2013-06-03 21:02:00,
2013-06-03 17:07:00,83.7,58.2,27.85,WSW,248,2.0,2.0,42,0.00,,---,0.00,VWS V14.01,2013-06-03 21:07:00,
2013-06-03 17:12:00,83.3,57.8,27.85,WSW,248,0.0,0.9,42,0.00,,---,0.00,VWS V14.01,2013-06-03 21:12:00,
2013-06-03 17:17:00,80.6,56.1,27.85,SSE,158,0.9,1.1,43,0.00,,---,0.00,VWS V14.01,2013-06-03 21:17:00,
2013-06-03 17:22:00,79.3,55.6,27.88,SW,225,0.0,1.3,44,0.00,,---,0.00,VWS V14.01,2013-06-03 21:22:00,
2013-06-03 17:27:00,79.0,55.2,27.88,WSW,248,0.0,0.9,44,0.00,,---,0.00,VWS V14.01,2013-06-03 21:27:00,
2013-06-03 17:32:00,78.3,55.2,27.88,West,270,2.5,3.1,45,0.00,,---,0.00,VWS V14.01,2013-06-03 21:32:00,
2013-06-03 17:37:00,77.5,55.2,27.85,WSW,248,0.0,0.0,46,0.00,,---,0.00,VWS V14.01,2013-06-03 21:37:00,
2013-06-03 17:42:00,77.2,55.4,27.85,South,180,0.0,1.1,47,0.00,,---,0.00,VWS V14.01,2013-06-03 21:42:00,
2013-06-03 17:47:00,76.6,55.5,27.85,WSW,248,0.0,0.9,48,0.00,,---,0.00,VWS V14.01,2013-06-03 21:47:00,
2013-06-03 17:52:00,76.6,56.6,27.85,WSW,248,0.0,0.9,50,0.00,,---,0.00,VWS V14.01,2013-06-03 21:52:00,
2013-06-03 17:57:00,76.6,56.1,27.85,WSW,248,1.3,1.6,49,0.00,,---,0.00,VWS V14.01,2013-06-03 21:57:00,
2013-06-03 18:02:00,76.1,56.1,27.85,NNE,22,0.0,0.0,50,0.00,,---,0.00,VWS V14.01,2013-06-03 22:02:00,
2013-06-03 18:07:00,75.7,55.8,27.85,West,270,0.0,0.0,50,0.00,,---,0.00,VWS V14.01,2013-06-03 22:07:00,
2013-06-03 18:12:00,75.6,56.2,27.85,SSW,202,0.0,0.0,51,0.00,,---,0.00,VWS V14.01,2013-06-03 22:12:00,
2013-06-03 18:17:00,75.6,56.2,27.85,East,90,0.0,0.0,51,0.00,,---,0.00,VWS V14.01,2013-06-03 22:17:00,
2013-06-03 18:22:00,75.4,56.0,27.85,West,270,0.9,1.3,51,0.00,,---,0.00,VWS V14.01,2013-06-03 22:22:00,
2013-06-03 18:27:00,75.2,56.4,27.85,SW,225,0.0,0.0,52,0.00,,---,0.00,VWS V14.01,2013-06-03 22:27:00,
2013-06-03 18:32:00,74.8,56.6,27.85,SW,225,0.0,1.1,53,0.00,,---,0.00,VWS V14.01,2013-06-03 22:32:00,
2013-06-03 18:37:00,74.5,55.7,27.85,East,90,4.7,4.7,52,0.00,,---,0.00,VWS V14.01,2013-06-03 22:37:00,
2013-06-03 18:42:00,74.1,55.9,27.85,South,180,0.9,0.9,53,0.00,,---,0.00,VWS V14.01,2013-06-03 22:42:00,
2013-06-03 18:48:00,73.8,55.6,27.85,SSE,158,0.0,1.1,53,0.00,,---,0.00,VWS V14.01,2013-06-03 22:48:00,
2013-06-03 18:53:00,73.8,55.6,27.85,ESE,112,0.0,1.3,53,0.00,,---,0.00,VWS V14.01,2013-06-03 22:53:00,
2013-06-03 18:58:00,73.6,55.4,27.85,West,270,0.0,0.0,53,0.00,,---,0.00,VWS V14.01,2013-06-03 22:58:00,
2013-06-03 19:03:00,73.4,55.2,27.85,WSW,248,0.0,0.0,53,0.00,,---,0.00,VWS V14.01,2013-06-03 23:03:00,
2013-06-03 19:08:00,73.0,55.4,27.85,WSW,248,0.0,0.0,54,0.00,,---,0.00,VWS V14.01,2013-06-03 23:08:00,
2013-06-03 19:13:00,72.9,55.3,27.85,WSW,248,0.0,0.0,54,0.00,,---,0.00,VWS V14.01,2013-06-03 23:13:00,
2013-06-03 19:18:00,72.7,55.6,27.85,WSW,248,0.0,0.0,55,0.00,,---,0.00,VWS V14.01,2013-06-03 23:18:00,
2013-06-03 19:23:00,72.5,55.9,27.88,WSW,248,0.0,0.0,56,0.00,,---,0.00,VWS V14.01,2013-06-03 23:23:00,
2013-06-03 19:28:00,72.3,56.2,27.88,ENE,68,0.0,0.0,57,0.00,,---,0.00,VWS V14.01,2013-06-03 23:28:00,
2013-06-03 19:33:00,72.3,56.2,27.88,WNW,292,0.0,0.0,57,0.00,,---,0.00,VWS V14.01,2013-06-03 23:33:00,
2013-06-03 19:38:00,72.1,56.6,27.88,ESE,112,0.9,0.9,58,0.00,,---,0.00,VWS V14.01,2013-06-03 23:38:00,
2013-06-03 19:43:00,72.0,56.4,27.88,West,270,0.0,0.9,58,0.00,,---,0.00,VWS V14.01,2013-06-03 23:43:00,
2013-06-03 19:49:00,71.6,56.5,27.88,West,270,0.0,0.0,59,0.00,,---,0.00,VWS V14.01,2013-06-03 23:49:00,
2013-06-03 19:54:00,71.4,56.8,27.88,WSW,248,0.0,0.0,60,0.00,,---,0.00,VWS V14.01,2013-06-03 23:54:00,
2013-06-03 19:59:00,71.2,56.7,27.88,SE,135,0.0,0.0,60,0.00,,---,0.00,VWS V14.01,2013-06-03 23:59:00,
2013-06-03 20:04:00,71.1,56.5,27.88,SSW,202,0.0,0.0,60,0.00,,---,0.00,VWS V14.01,2013-06-04 00:04:00,
2013-06-03 20:09:00,70.7,56.6,27.88,East,90,0.0,0.0,61,0.00,,---,0.00,VWS V14.01,2013-06-04 00:09:00,
2013-06-03 20:14:00,70.5,56.9,27.88,North,0,0.0,0.0,62,0.00,,---,0.00,VWS V14.01,2013-06-04 00:14:00,
2013-06-03 20:19:00,70.2,57.0,27.88,NNW,338,0.0,0.0,63,0.00,,---,0.00,VWS V14.01,2013-06-04 00:19:00,
2013-06-03 20:24:00,69.8,57.1,27.88,WNW,292,0.0,0.0,64,0.00,,---,0.00,VWS V14.01,2013-06-04 00:24:00,
2013-06-03 20:29:00,69.6,57.3,27.88,East,90,0.0,0.0,65,0.00,,---,0.00,VWS V14.01,2013-06-04 00:29:00,
2013-06-03 20:34:00,69.4,57.6,27.88,WNW,292,0.0,0.0,66,0.00,,---,0.00,VWS V14.01,2013-06-04 00:34:00,
2013-06-03 20:39:00,69.3,57.8,27.88,WNW,292,0.0,0.0,67,0.00,,---,0.00,VWS V14.01,2013-06-04 00:39:00,
2013-06-03 20:44:00,68.9,57.1,27.88,WNW,292,0.0,0.0,66,0.00,,---,0.00,VWS V14.01,2013-06-04 00:44:00,
2013-06-03 20:49:00,68.7,56.9,27.88,WNW,292,0.0,0.0,66,0.00,,---,0.00,VWS V14.01,2013-06-04 00:49:00,
2013-06-03 20:54:00,68.4,56.6,27.88,NW,315,0.0,0.0,66,0.00,,---,0.00,VWS V14.01,2013-06-04 00:54:00,
2013-06-03 20:59:00,68.2,56.4,27.88,WNW,292,0.0,0.0,66,0.00,,---,0.00,VWS V14.01,2013-06-04 00:59:00,
2013-06-03 21:04:00,68.0,56.7,27.88,WNW,292,0.0,0.0,67,0.00,,---,0.00,VWS V14.01,2013-06-04 01:04:00,
2013-06-03 21:09:00,67.6,56.3,27.88,WNW,292,0.0,0.0,67,0.00,,---,0.00,VWS V14.01,2013-06-04 01:09:00,
2013-06-03 21:14:00,67.5,56.1,27.88,WNW,292,0.0,0.0,67,0.00,,---,0.00,VWS V14.01,2013-06-04 01:14:00,
2013-06-03 21:19:00,67.1,55.8,27.88,SW,225,0.0,0.0,67,0.00,,---,0.00,VWS V14.01,2013-06-04 01:19:00,
2013-06-03 21:24:00,66.9,55.6,27.88,SW,225,0.0,0.0,67,0.00,,---,0.00,VWS V14.01,2013-06-04 01:24:00,
2013-06-03 21:29:00,66.7,55.8,27.88,SW,225,0.0,0.0,68,0.00,,---,0.00,VWS V14.01,2013-06-04 01:29:00,
2013-06-03 21:34:00,66.6,55.7,27.88,SW,225,0.0,0.0,68,0.00,,---,0.00,VWS V14.01,2013-06-04 01:34:00,
2013-06-03 21:39:00,66.4,55.5,27.90,WNW,292,0.0,0.0,68,0.00,,---,0.00,VWS V14.01,2013-06-04 01:39:00,
2013-06-03 21:44:00,66.2,55.7,27.90,NW,315,0.0,0.0,69,0.00,,---,0.00,VWS V14.01,2013-06-04 01:44:00,
2013-06-03 21:49:00,66.0,55.6,27.90,WNW,292,0.0,0.0,69,0.00,,---,0.00,VWS V14.01,2013-06-04 01:49:00,
2013-06-03 21:54:00,65.8,55.4,27.90,WNW,292,0.0,0.0,69,0.00,,---,0.00,VWS V14.01,2013-06-04 01:54:00,
2013-06-03 21:59:00,65.7,55.2,27.90,WNW,292,0.0,0.9,69,0.00,,---,0.00,VWS V14.01,2013-06-04 01:59:00,
2013-06-03 22:05:00,65.5,55.5,27.90,WNW,292,0.0,1.1,70,0.00,,---,0.00,VWS V14.01,2013-06-04 02:05:00,
2013-06-03 22:10:00,65.5,55.5,27.90,WNW,292,0.0,0.0,70,0.00,,---,0.00,VWS V14.01,2013-06-04 02:10:00,
2013-06-03 22:15:00,65.5,55.5,27.90,WNW,292,0.0,0.0,70,0.00,,---,0.00,VWS V14.01,2013-06-04 02:15:00,
2013-06-03 22:20:00,65.5,55.5,27.90,WNW,292,0.0,0.0,70,0.00,,---,0.00,VWS V14.01,2013-06-04 02:20:00,
2013-06-03 22:25:00,65.1,55.5,27.90,NW,315,0.0,0.0,71,0.00,,---,0.00,VWS V14.01,2013-06-04 02:25:00,
2013-06-03 22:30:00,65.1,55.5,27.90,NW,315,0.0,0.0,71,0.00,,---,0.00,VWS V14.01,2013-06-04 02:30:00,
2013-06-03 22:35:00,65.1,55.5,27.90,NW,315,0.0,0.9,71,0.00,,---,0.00,VWS V14.01,2013-06-04 02:35:00,
2013-06-03 22:40:00,65.3,55.7,27.90,WSW,248,0.0,1.6,71,0.00,,---,0.00,VWS V14.01,2013-06-04 02:40:00,
2013-06-03 22:45:00,65.1,55.9,27.90,North,0,0.9,0.9,72,0.00,,---,0.00,VWS V14.01,2013-06-04 02:45:00,
2013-06-03 22:50:00,65.1,55.9,27.90,NW,315,0.0,0.0,72,0.00,,---,0.00,VWS V14.01,2013-06-04 02:50:00,
2013-06-03 22:55:00,65.1,55.9,27.90,North,0,0.0,0.0,72,0.00,,---,0.00,VWS V14.01,2013-06-04 02:55:00,
2013-06-03 23:00:00,64.9,55.7,27.90,WSW,248,0.9,0.9,72,0.00,,---,0.00,VWS V14.01,2013-06-04 03:00:00,
2013-06-03 23:05:00,64.8,55.5,27.90,WNW,292,0.0,1.1,72,0.00,,---,0.00,VWS V14.01,2013-06-04 03:05:00,
2013-06-03 23:10:00,64.8,55.9,27.93,NW,315,0.0,0.0,73,0.00,,---,0.00,VWS V14.01,2013-06-04 03:10:00,
2013-06-03 23:15:00,64.6,55.7,27.93,NW,315,0.0,0.0,73,0.00,,---,0.00,VWS V14.01,2013-06-04 03:15:00,
2013-06-03 23:20:00,64.4,55.6,27.93,West,270,0.0,0.0,73,0.00,,---,0.00,VWS V14.01,2013-06-04 03:20:00,
2013-06-03 23:25:00,64.4,55.6,27.93,NNW,338,0.0,0.0,73,0.00,,---,0.00,VWS V14.01,2013-06-04 03:25:00,
2013-06-03 23:30:00,64.2,55.8,27.93,NW,315,0.0,0.0,74,0.00,,---,0.00,VWS V14.01,2013-06-04 03:30:00,
2013-06-03 23:35:00,64.2,55.8,27.93,NNW,338,0.0,0.0,74,0.00,,---,0.00,VWS V14.01,2013-06-04 03:35:00,
2013-06-03 23:40:00,64.0,55.6,27.93,SW,225,0.0,0.0,74,0.00,,---,0.00,VWS V14.01,2013-06-04 03:40:00,
2013-06-03 23:45:00,63.9,55.8,27.93,WNW,292,0.0,1.1,75,0.00,,---,0.00,VWS V14.01,2013-06-04 03:45:00,
2013-06-03 23:51:00,63.9,55.8,27.93,NNW,338,0.0,0.0,75,0.00,,---,0.00,VWS V14.01,2013-06-04 03:51:00,
2013-06-03 23:56:00,63.7,56.0,27.93,NNW,338,0.0,0.0,76,0.00,,---,0.00,VWS V14.01,2013-06-04 03:56:00,